createdAt,value
2022-08-17T00:04:34.973Z,99812.27
2022-08-17T00:14:39.841Z,99807.30
2022-08-17T00:24:45.266Z,99810.88
2022-08-17T00:35:10.140Z,99814.71
2022-08-17T00:45:53.904Z,99811.95
2022-08-17T00:56:01.930Z,99822.54
2022-08-17T01:06:08.826Z,99822.87
2022-08-17T01:16:33.117Z,99817.42
2022-08-17T01:26:41.517Z,99818.38
2022-08-17T01:47:22.991Z,99824.74
2022-08-17T01:57:56.619Z,99829.38
2022-08-17T02:18:39.953Z,99827.50
2022-08-17T02:29:06.938Z,99834.96
2022-08-17T02:39:41.430Z,99833.98
2022-08-17T02:49:54.073Z,99832.00
2022-08-17T03:00:42.633Z,99839.11
2022-08-17T03:11:20.542Z,99836.86
2022-08-17T03:22:19.833Z,99836.95
2022-08-17T03:33:16.007Z,99844.41
2022-08-17T03:44:26.485Z,99850.98
2022-08-17T03:54:59.470Z,99863.97
2022-08-17T04:05:50.042Z,99868.15
2022-08-17T04:16:38.917Z,99884.08
2022-08-17T04:26:52.781Z,99887.10
2022-08-17T04:37:20.692Z,99881.89
2022-08-17T04:47:30.220Z,99882.32
2022-08-17T04:57:39.450Z,99883.27
2022-08-17T05:07:51.587Z,99886.30
2022-08-17T05:17:55.603Z,99891.20
2022-08-17T05:27:58.485Z,99887.73
2022-08-17T05:38:25.318Z,99894.00
2022-08-17T05:48:49.945Z,99901.38
2022-08-17T05:59:16.045Z,99912.34
2022-08-17T06:10:09.498Z,99907.70
2022-08-17T06:20:17.599Z,99912.08
2022-08-17T06:30:57.350Z,99923.14
2022-08-17T06:41:08.897Z,99931.82
2022-08-17T06:51:35.348Z,99926.37
2022-08-17T07:01:42.680Z,99918.64
2022-08-17T07:12:01.098Z,99924.92
2022-08-17T07:22:57.493Z,99936.67
2022-08-17T07:33:21.894Z,99935.19
2022-08-17T07:43:49.291Z,99943.43
2022-08-17T07:54:14.422Z,99944.59
2022-08-17T08:15:11.776Z,99941.60
2022-08-17T08:25:43.083Z,99933.55
2022-08-17T08:35:55.077Z,99945.11
2022-08-17T08:46:33.305Z,99945.77
2022-08-17T08:57:29.202Z,99945.05
2022-08-17T09:08:29.801Z,99946.95
2022-08-17T09:18:59.895Z,99947.83
2022-08-17T09:29:16.065Z,99947.18
2022-08-17T09:39:36.492Z,99956.46
2022-08-17T09:50:03.721Z,99962.00
2022-08-17T10:00:44.702Z,99948.31
2022-08-17T10:11:18.282Z,99953.02
2022-08-17T10:22:00.591Z,99956.77
2022-08-17T10:32:45.676Z,99958.11
2022-08-17T10:43:28.936Z,99958.17
2022-08-17T10:53:31.006Z,99960.25
2022-08-17T11:03:33.395Z,99957.17
2022-08-17T11:14:13.627Z,99953.80
2022-08-17T11:24:30.249Z,99954.39
2022-08-17T11:34:34.635Z,99951.14
2022-08-17T11:45:19.360Z,99949.05
2022-08-17T11:56:10.174Z,99953.55
2022-08-17T12:06:56.664Z,99945.84
2022-08-17T12:17:03.080Z,99940.91
2022-08-17T12:27:10.892Z,99937.44
2022-08-17T12:37:51.921Z,99948.90
2022-08-17T12:48:18.209Z,99949.08
2022-08-17T12:58:30.973Z,99947.14
2022-08-17T13:08:49.761Z,99949.62
2022-08-17T13:19:16.286Z,99937.89
2022-08-17T13:29:23.385Z,99921.86
2022-08-17T13:49:55.222Z,99929.97
2022-08-17T14:00:35.253Z,99937.02
2022-08-17T14:10:38.956Z,99940.34
2022-08-17T14:20:42.712Z,99938.02
2022-08-17T14:31:14.641Z,99935.66
2022-08-17T14:42:26.662Z,99936.39
2022-08-17T14:53:08.518Z,99935.34
2022-08-17T15:03:23.145Z,99930.25
2022-08-17T15:13:30.017Z,99928.05
2022-08-17T15:23:32.499Z,99926.58
2022-08-17T15:33:44.696Z,99921.63
2022-08-17T16:06:01.518Z,99927.39
2022-08-17T16:16:07.572Z,99935.69
2022-08-17T16:26:10.024Z,99933.20
2022-08-17T16:47:10.446Z,99942.16
2022-08-17T16:57:24.756Z,99951.40
2022-08-17T17:07:45.597Z,99964.80
2022-08-17T17:18:21.243Z,99971.89
2022-08-17T17:29:11.280Z,99973.58
2022-08-17T17:39:44.391Z,99978.97
2022-08-17T17:50:32.505Z,99998.23
2022-08-17T18:01:44.205Z,100012.29
2022-08-17T18:12:50.610Z,100012.73
2022-08-17T18:22:53.111Z,100033.50
2022-08-17T18:33:30.884Z,100033.09
2022-08-17T18:43:44.090Z,100029.35
2022-08-17T18:54:15.404Z,100038.77
2022-08-17T19:04:34.661Z,100046.73
2022-08-17T19:14:45.539Z,100058.11
2022-08-17T19:25:02.776Z,100059.79
2022-08-17T19:35:37.906Z,100060.73
2022-08-17T19:57:34.502Z,100071.52
2022-08-17T20:08:06.619Z,100080.16
2022-08-17T20:18:51.230Z,100088.54
2022-08-17T20:40:53.365Z,100097.98
2022-08-17T20:51:23.125Z,100097.20
2022-08-17T21:01:42.192Z,100106.35
2022-08-17T21:12:35.089Z,100126.91
2022-08-17T21:23:12.322Z,100135.30
2022-08-17T21:33:42.642Z,100150.44
2022-08-17T21:43:50.436Z,100146.27
2022-08-17T21:54:29.496Z,100130.84
2022-08-17T22:05:11.184Z,100127.20
2022-08-17T22:15:39.760Z,100114.11
2022-08-17T22:26:06.347Z,100107.33
2022-08-17T22:36:47.578Z,100107.73
2022-08-17T22:47:21.329Z,100104.71
2022-08-17T22:57:59.135Z,100090.94
2022-08-17T23:08:17.604Z,100082.42
2022-08-17T23:18:31.403Z,100080.65
2022-08-17T23:28:53.758Z,100069.61
2022-08-17T23:39:07.607Z,100072.75
2022-08-17T23:49:21.516Z,100065.24
2022-08-17T23:59:27.143Z,100065.61
